sensor_id;sensor_type;location;lat;lon;timestamp;pressure;altitude;pressure_sealevel;temperature;humidity
5550;BME280;2798;42.716;23.256;2024-01-10T00:01:03;95753.56;;;0.89;71.45
5550;BME280;2798;42.716;23.256;2024-01-10T00:03:28;95757.03;;;0.85;71.07
5550;BME280;2798;42.716;23.256;2024-01-10T00:05:54;95757.84;;;0.85;72.15
5550;BME280;2798;42.716;23.256;2024-01-10T00:08:20;95753.56;;;0.89;71.82
5550;BME280;2798;42.716;23.256;2024-01-10T00:10:45;95757.78;;;0.90;72.34
5550;BME280;2798;42.716;23.256;2024-01-10T00:13:11;95754.47;;;0.86;71.89
5550;BME280;2798;42.716;23.256;2024-01-10T00:15:36;95754.34;;;0.93;70.94
5550;BME280;2798;42.716;23.256;2024-01-10T00:18:01;95751.03;;;0.89;72.68
5550;BME280;2798;42.716;23.256;2024-01-10T00:20:27;95758.56;;;0.92;72.34
5550;BME280;2798;42.716;23.256;2024-01-10T00:22:52;95755.31;;;0.87;71.96
5550;BME280;2798;42.716;23.256;2024-01-10T00:25:18;95756.19;;;0.83;71.07
5550;BME280;2798;42.716;23.256;2024-01-10T00:27:43;95759.59;;;0.83;71.31
5550;BME280;2798;42.716;23.256;2024-01-10T00:30:09;95758.69;;;0.86;72.46
5550;BME280;2798;42.716;23.256;2024-01-10T00:32:34;95766.16;;;0.94;73.17
5550;BME280;2798;42.716;23.256;2024-01-10T00:34:59;95760.22;;;0.96;71.27
5550;BME280;2798;42.716;23.256;2024-01-10T00:37:26;95756.00;;;0.94;71.28
5550;BME280;2798;42.716;23.256;2024-01-10T00:39:51;95761.22;;;0.86;72.30
5550;BME280;2798;42.716;23.256;2024-01-10T00:42:17;95762.13;;;0.83;72.40
5550;BME280;2798;42.716;23.256;2024-01-10T00:44:42;95765.34;;;0.92;71.97
5550;BME280;2798;42.716;23.256;2024-01-10T00:47:08;95765.34;;;0.93;71.54
5550;BME280;2798;42.716;23.256;2024-01-10T00:49:33;95765.34;;;0.93;71.97
5550;BME280;2798;42.716;23.256;2024-01-10T00:51:59;95767.94;;;0.89;71.91
5550;BME280;2798;42.716;23.256;2024-01-10T00:54:24;95769.63;;;0.88;72.27
5550;BME280;2798;42.716;23.256;2024-01-10T00:56:49;95770.38;;;0.95;73.22
5550;BME280;2798;42.716;23.256;2024-01-10T00:59:15;95766.94;;;0.97;72.26
5550;BME280;2798;42.716;23.256;2024-01-10T01:01:40;95758.53;;;0.94;72.49
5550;BME280;2798;42.716;23.256;2024-01-10T01:04:06;95760.22;;;0.96;72.17
5550;BME280;2798;42.716;23.256;2024-01-10T01:06:31;95758.53;;;0.94;72.77
5550;BME280;2798;42.716;23.256;2024-01-10T01:08:56;95761.81;;;1.01;72.90
5550;BME280;2798;42.716;23.256;2024-01-10T01:11:23;95769.34;;;1.04;73.06
5550;BME280;2798;42.716;23.256;2024-01-10T01:13:49;95762.53;;;1.07;72.11
5550;BME280;2798;42.716;23.256;2024-01-10T01:16:14;95764.28;;;1.04;72.62
5550;BME280;2798;42.716;23.256;2024-01-10T01:18:39;95766.03;;;1.00;72.26
5550;BME280;2798;42.716;23.256;2024-01-10T01:21:05;95764.28;;;1.04;73.59
5550;BME280;2798;42.716;23.256;2024-01-10T01:23:30;95761.69;;;1.07;71.90
5550;BME280;2798;42.716;23.256;2024-01-10T01:25:55;95763.41;;;1.06;72.17
5550;BME280;2798;42.716;23.256;2024-01-10T01:28:21;95753.28;;;1.06;72.88
5550;BME280;2798;42.716;23.256;2024-01-10T01:30:46;95757.50;;;1.06;73.14
5550;BME280;2798;42.716;23.256;2024-01-10T01:33:12;95754.00;;;1.11;72.26
5550;BME280;2798;42.716;23.256;2024-01-10T01:35:37;95748.13;;;1.11;72.26
5550;BME280;2798;42.716;23.256;2024-01-10T01:38:02;95738.81;;;1.10;72.03
5550;BME280;2798;42.716;23.256;2024-01-10T01:40:27;95744.75;;;1.09;72.63
5550;BME280;2798;42.716;23.256;2024-01-10T01:42:53;95751.53;;;1.08;73.08
5550;BME280;2798;42.716;23.256;2024-01-10T01:45:18;95751.47;;;1.11;72.11
5550;BME280;2798;42.716;23.256;2024-01-10T01:47:44;95745.59;;;1.11;71.85
5550;BME280;2798;42.716;23.256;2024-01-10T01:50:10;95747.50;;;0.98;71.62
5550;BME280;2798;42.716;23.256;2024-01-10T01:52:35;95744.84;;;1.04;71.52
5550;BME280;2798;42.716;23.256;2024-01-10T01:55:01;95745.72;;;1.02;72.30
5550;BME280;2798;42.716;23.256;2024-01-10T01:57:27;95739.69;;;1.09;71.72
5550;BME280;2798;42.716;23.256;2024-01-10T01:59:52;95731.34;;;1.04;72.09
5550;BME280;2798;42.716;23.256;2024-01-10T02:02:17;95738.06;;;1.06;70.52
5550;BME280;2798;42.716;23.256;2024-01-10T02:04:43;95727.09;;;1.04;71.51
5550;BME280;2798;42.716;23.256;2024-01-10T02:07:09;95695.38;;;0.83;72.24
5550;BME280;2798;42.716;23.256;2024-01-10T02:09:34;95718.59;;;1.07;71.90
5550;BME280;2798;42.716;23.256;2024-01-10T02:12:00;95720.34;;;1.05;71.91
5550;BME280;2798;42.716;23.256;2024-01-10T02:14:25;95722.06;;;1.03;71.55
5550;BME280;2798;42.716;23.256;2024-01-10T02:16:51;95750.00;;;1.00;71.54
5550;BME280;2798;42.716;23.256;2024-01-10T02:19:20;95727.28;;;0.95;72.69
5550;BME280;2798;42.716;23.256;2024-01-10T02:21:45;95723.78;;;1.01;72.71
5550;BME280;2798;42.716;23.256;2024-01-10T02:24:10;95722.09;;;1.01;70.96
5550;BME280;2798;42.716;23.256;2024-01-10T02:26:36;95722.91;;;1.02;70.89
5550;BME280;2798;42.716;23.256;2024-01-10T02:29:01;95721.31;;;0.97;71.53
5550;BME280;2798;42.716;23.256;2024-01-10T02:31:26;95720.56;;;0.92;71.69
5550;BME280;2798;42.716;23.256;2024-01-10T02:33:52;95715.41;;;0.95;72.30
5550;BME280;2798;42.716;23.256;2024-01-10T02:36:18;95713.66;;;0.99;71.07
5550;BME280;2798;42.716;23.256;2024-01-10T02:38:43;95704.66;;;0.82;70.63
5550;BME280;2798;42.716;23.256;2024-01-10T02:41:08;95711.22;;;0.94;69.79
5550;BME280;2798;42.716;23.256;2024-01-10T02:43:33;95723.22;;;0.84;70.57
5550;BME280;2798;42.716;23.256;2024-01-10T02:45:59;95722.31;;;0.89;71.80
5550;BME280;2798;42.716;23.256;2024-01-10T02:48:24;95775.53;;;0.90;69.89
5550;BME280;2798;42.716;23.256;2024-01-10T02:50:50;95728.19;;;0.91;70.21
5550;BME280;2798;42.716;23.256;2024-01-10T02:53:15;95730.78;;;0.88;70.52
5550;BME280;2798;42.716;23.256;2024-01-10T02:55:41;95724.91;;;0.84;69.77
5550;BME280;2798;42.716;23.256;2024-01-10T02:58:07;95728.41;;;0.78;70.62
5550;BME280;2798;42.716;23.256;2024-01-10T03:00:32;95734.25;;;0.82;71.05
5550;BME280;2798;42.716;23.256;2024-01-10T03:02:57;95723.31;;;0.80;69.81
5550;BME280;2798;42.716;23.256;2024-01-10T03:05:22;95723.34;;;0.78;70.33
5550;BME280;2798;42.716;23.256;2024-01-10T03:07:48;95725.09;;;0.74;69.39
5550;BME280;2798;42.716;23.256;2024-01-10T03:10:13;95743.66;;;0.75;69.92
5550;BME280;2798;42.716;23.256;2024-01-10T03:12:38;95719.16;;;0.76;71.62
5550;BME280;2798;42.716;23.256;2024-01-10T03:15:05;95721.59;;;0.82;69.77
5550;BME280;2798;42.716;23.256;2024-01-10T03:17:31;95724.19;;;0.79;69.65
5550;BME280;2798;42.716;23.256;2024-01-10T03:19:59;95727.53;;;0.79;69.22
5550;BME280;2798;42.716;23.256;2024-01-10T03:22:24;95725.91;;;0.77;70.39
5550;BME280;2798;42.716;23.256;2024-01-10T03:24:49;95731.91;;;0.72;70.38
5550;BME280;2798;42.716;23.256;2024-01-10T03:27:14;95740.22;;;0.78;69.96
5550;BME280;2798;42.716;23.256;2024-01-10T03:29:40;95728.50;;;0.73;70.05
5550;BME280;2798;42.716;23.256;2024-01-10T03:32:05;95737.81;;;0.71;70.02
5550;BME280;2798;42.716;23.256;2024-01-10T03:34:31;95742.06;;;0.68;69.62
5550;BME280;2798;42.716;23.256;2024-01-10T03:36:56;95674.47;;;0.22;68.53
5550;BME280;2798;42.716;23.256;2024-01-10T03:39:22;95732.88;;;0.64;70.83
5550;BME280;2798;42.716;23.256;2024-01-10T03:41:47;95734.47;;;0.71;69.91
5550;BME280;2798;42.716;23.256;2024-01-10T03:44:13;95741.22;;;0.70;69.02
5550;BME280;2798;42.716;23.256;2024-01-10T03:46:39;95738.72;;;0.67;69.25
5550;BME280;2798;42.716;23.256;2024-01-10T03:49:04;95739.56;;;0.69;70.02
5550;BME280;2798;42.716;23.256;2024-01-10T03:51:30;95740.41;;;0.68;70.83
5550;BME280;2798;42.716;23.256;2024-01-10T03:53:55;95743.78;;;0.69;71.44
5550;BME280;2798;42.716;23.256;2024-01-10T03:56:22;95747.94;;;0.71;69.90
5550;BME280;2798;42.716;23.256;2024-01-10T03:58:47;95738.69;;;0.69;69.58
5550;BME280;2798;42.716;23.256;2024-01-10T04:01:15;95744.63;;;0.66;69.83
5550;BME280;2798;42.716;23.256;2024-01-10T04:03:41;95738.69;;;0.69;70.24
5550;BME280;2798;42.716;23.256;2024-01-10T04:06:07;95742.94;;;0.68;70.60
5550;BME280;2798;42.716;23.256;2024-01-10T04:08:32;95743.78;;;0.69;71.44
5550;BME280;2798;42.716;23.256;2024-01-10T04:10:58;95738.69;;;0.70;69.56
5550;BME280;2798;42.716;23.256;2024-01-10T04:13:23;95743.03;;;0.62;68.89
5550;BME280;2798;42.716;23.256;2024-01-10T04:15:48;95743.94;;;0.59;69.61
5550;BME280;2798;42.716;23.256;2024-01-10T04:18:14;95745.56;;;0.62;69.45
5550;BME280;2798;42.716;23.256;2024-01-10T04:20:39;95745.59;;;0.60;70.87
5550;BME280;2798;42.716;23.256;2024-01-10T04:23:05;95747.94;;;0.71;69.24
5550;BME280;2798;42.716;23.256;2024-01-10T04:25:30;95750.47;;;0.71;68.98
5550;BME280;2798;42.716;23.256;2024-01-10T04:27:55;95747.09;;;0.72;69.49
5550;BME280;2798;42.716;23.256;2024-01-10T04:30:22;95754.00;;;0.64;68.54
5550;BME280;2798;42.716;23.256;2024-01-10T04:32:47;95762.41;;;0.65;69.16
5550;BME280;2798;42.716;23.256;2024-01-10T04:35:12;95763.19;;;0.68;70.74
5550;BME280;2798;42.716;23.256;2024-01-10T04:37:38;95764.78;;;0.76;68.52
5550;BME280;2798;42.716;23.256;2024-01-10T04:40:04;95769.88;;;0.74;68.54
5550;BME280;2798;42.716;23.256;2024-01-10T04:42:30;95777.44;;;0.77;69.19
5550;BME280;2798;42.716;23.256;2024-01-10T04:44:55;95774.91;;;0.77;69.22
5550;BME280;2798;42.716;23.256;2024-01-10T04:47:20;95778.28;;;0.74;70.36
5550;BME280;2798;42.716;23.256;2024-01-10T04:49:46;95787.50;;;0.80;70.57
5550;BME280;2798;42.716;23.256;2024-01-10T04:52:12;95784.06;;;0.83;69.49
5550;BME280;2798;42.716;23.256;2024-01-10T04:54:37;95779.88;;;0.82;68.82
5550;BME280;2798;42.716;23.256;2024-01-10T04:57:03;95786.63;;;0.81;69.42
5550;BME280;2798;42.716;23.256;2024-01-10T04:59:28;95794.31;;;0.77;70.17
5550;BME280;2798;42.716;23.256;2024-01-10T05:01:54;95786.72;;;0.77;71.38
5550;BME280;2798;42.716;23.256;2024-01-10T05:04:19;95782.38;;;0.85;68.70
5550;BME280;2798;42.716;23.256;2024-01-10T05:06:45;95784.13;;;0.80;69.01
5550;BME280;2798;42.716;23.256;2024-01-10T05:09:10;95784.22;;;0.73;68.75
5550;BME280;2798;42.716;23.256;2024-01-10T05:11:35;95783.41;;;0.71;67.50
5550;BME280;2798;42.716;23.256;2024-01-10T05:14:01;95787.66;;;0.71;69.28
5550;BME280;2798;42.716;23.256;2024-01-10T05:16:26;95787.59;;;0.76;69.95
5550;BME280;2798;42.716;23.256;2024-01-10T05:18:52;95784.16;;;0.78;67.07
5550;BME280;2798;42.716;23.256;2024-01-10T05:21:17;95783.28;;;0.79;67.44
5550;BME280;2798;42.716;23.256;2024-01-10T05:23:42;95791.81;;;0.75;68.31
5550;BME280;2798;42.716;23.256;2024-01-10T05:26:08;95793.44;;;0.78;68.25
5550;BME280;2798;42.716;23.256;2024-01-10T05:28:33;95786.75;;;0.75;69.43
5550;BME280;2798;42.716;23.256;2024-01-10T05:30:58;95793.34;;;0.84;68.33
5550;BME280;2798;42.716;23.256;2024-01-10T05:33:24;95798.41;;;0.84;68.25
5550;BME280;2798;42.716;23.256;2024-01-10T05:35:49;95801.78;;;0.84;67.83
5550;BME280;2798;42.716;23.256;2024-01-10T05:38:15;95805.25;;;0.80;68.49
5550;BME280;2798;42.716;23.256;2024-01-10T05:40:40;95807.84;;;0.77;69.19
5550;BME280;2798;42.716;23.256;2024-01-10T05:43:05;95803.44;;;0.85;69.64
5550;BME280;2798;42.716;23.256;2024-01-10T05:45:32;95807.63;;;0.90;68.35
5550;BME280;2798;42.716;23.256;2024-01-10T05:47:57;95805.19;;;0.83;68.84
5550;BME280;2798;42.716;23.256;2024-01-10T05:50:23;95808.56;;;0.82;68.40
5550;BME280;2798;42.716;23.256;2024-01-10T05:52:48;95811.09;;;0.82;67.65
5550;BME280;2798;42.716;23.256;2024-01-10T05:55:13;95808.56;;;0.84;69.03
5550;BME280;2798;42.716;23.256;2024-01-10T05:57:39;95814.47;;;0.84;68.43
5550;BME280;2798;42.716;23.256;2024-01-10T06:00:05;95818.75;;;0.81;67.40
5550;BME280;2798;42.716;23.256;2024-01-10T06:02:41;95818.78;;;0.78;67.34
5550;BME280;2798;42.716;23.256;2024-01-10T06:05:06;95820.47;;;0.80;66.58
5550;BME280;2798;42.716;23.256;2024-01-10T06:07:32;95822.16;;;0.78;67.81
5550;BME280;2798;42.716;23.256;2024-01-10T06:09:57;95825.50;;;0.82;68.63
5550;BME280;2798;42.716;23.256;2024-01-10T06:12:23;95819.53;;;0.84;67.90
5550;BME280;2798;42.716;23.256;2024-01-10T06:14:48;95831.34;;;0.84;67.20
5550;BME280;2798;42.716;23.256;2024-01-10T06:17:13;95830.53;;;0.85;67.46
5550;BME280;2798;42.716;23.256;2024-01-10T06:19:39;95831.34;;;0.87;67.78
5550;BME280;2798;42.716;23.256;2024-01-10T06:22:04;95828.88;;;0.81;68.42
5550;BME280;2798;42.716;23.256;2024-01-10T06:24:30;95838.97;;;0.84;68.43
5550;BME280;2798;42.716;23.256;2024-01-10T06:26:55;95845.66;;;0.88;67.74
5550;BME280;2798;42.716;23.256;2024-01-10T06:29:20;95841.50;;;0.84;67.28
5550;BME280;2798;42.716;23.256;2024-01-10T06:31:46;95849.97;;;0.83;67.78
5550;BME280;2798;42.716;23.256;2024-01-10T06:34:12;95849.09;;;0.87;67.62
5550;BME280;2798;42.716;23.256;2024-01-10T06:36:40;95848.22;;;0.86;68.05
5550;BME280;2798;42.716;23.256;2024-01-10T06:39:06;95843.09;;;0.91;68.19
5550;BME280;2798;42.716;23.256;2024-01-10T06:41:34;95844.69;;;0.97;67.01
5550;BME280;2798;42.716;23.256;2024-01-10T06:43:59;95857.38;;;0.95;67.84
5550;BME280;2798;42.716;23.256;2024-01-10T06:46:28;95857.50;;;0.88;67.63
5550;BME280;2798;42.716;23.256;2024-01-10T06:48:55;95858.38;;;0.86;67.45
5550;BME280;2798;42.716;23.256;2024-01-10T06:51:21;95854.13;;;0.89;68.98
5550;BME280;2798;42.716;23.256;2024-01-10T06:53:46;95855.69;;;0.96;68.00
5550;BME280;2798;42.716;23.256;2024-01-10T06:56:11;95858.16;;;1.01;68.01
5550;BME280;2798;42.716;23.256;2024-01-10T06:58:38;95870.84;;;0.99;67.47
5550;BME280;2798;42.716;23.256;2024-01-10T07:01:03;95862.38;;;1.00;66.84
5550;BME280;2798;42.716;23.256;2024-01-10T07:03:31;95863.97;;;1.06;68.40
5550;BME280;2798;42.716;23.256;2024-01-10T07:05:57;95866.34;;;1.15;67.04
5550;BME280;2798;42.716;23.256;2024-01-10T07:08:25;95868.91;;;1.15;67.22
5550;BME280;2798;42.716;23.256;2024-01-10T07:10:50;95869.72;;;1.17;67.72
5550;BME280;2798;42.716;23.256;2024-01-10T07:13:15;95807.84;;;0.77;68.10
5550;BME280;2798;42.716;23.256;2024-01-10T07:15:40;95877.28;;;1.20;68.37
5550;BME280;2798;42.716;23.256;2024-01-10T07:18:06;95877.91;;;1.33;67.86
5550;BME280;2798;42.716;23.256;2024-01-10T07:20:31;95871.97;;;1.34;66.96
5550;BME280;2798;42.716;23.256;2024-01-10T07:22:57;95874.47;;;1.36;67.35
5550;BME280;2798;42.716;23.256;2024-01-10T07:25:24;95882.03;;;1.39;66.86
5550;BME280;2798;42.716;23.256;2024-01-10T07:27:50;95878.63;;;1.40;68.56
5550;BME280;2798;42.716;23.256;2024-01-10T07:30:16;95880.13;;;1.51;68.35
5550;BME280;2798;42.716;23.256;2024-01-10T07:32:42;95880.91;;;1.56;67.97
5550;BME280;2798;42.716;23.256;2024-01-10T07:35:07;95892.72;;;1.55;68.35
5550;BME280;2798;42.716;23.256;2024-01-10T07:37:36;95900.31;;;1.57;67.97
5550;BME280;2798;42.716;23.256;2024-01-10T07:40:02;95837.53;;;1.21;69.62
5550;BME280;2798;42.716;23.256;2024-01-10T07:42:30;95897.47;;;1.76;67.07
5550;BME280;2798;42.716;23.256;2024-01-10T07:44:56;95897.44;;;1.77;67.77
5550;BME280;2798;42.716;23.256;2024-01-10T07:47:22;95893.13;;;1.81;67.51
5550;BME280;2798;42.716;23.256;2024-01-10T07:49:47;95894.84;;;1.80;67.58
5550;BME280;2798;42.716;23.256;2024-01-10T07:52:12;95895.50;;;1.90;68.38
5550;BME280;2798;42.716;23.256;2024-01-10T07:54:38;95901.38;;;1.92;66.83
5550;BME280;2798;42.716;23.256;2024-01-10T07:57:03;95898.00;;;1.92;67.24
5550;BME280;2798;42.716;23.256;2024-01-10T07:59:29;95898.06;;;1.90;67.91
5550;BME280;2798;42.716;23.256;2024-01-10T08:01:54;95883.53;;;1.95;69.71
5550;BME280;2798;42.716;23.256;2024-01-10T08:04:21;95890.22;;;2.01;67.43
5550;BME280;2798;42.716;23.256;2024-01-10T08:06:48;95889.41;;;1.99;66.05
5550;BME280;2798;42.716;23.256;2024-01-10T08:09:13;95881.81;;;1.97;66.44
5550;BME280;2798;42.716;23.256;2024-01-10T08:11:39;95892.75;;;2.01;67.04
5550;BME280;2798;42.716;23.256;2024-01-10T08:14:05;95894.09;;;2.18;65.70
5550;BME280;2798;42.716;23.256;2024-01-10T08:16:30;95895.75;;;2.20;65.86
5550;BME280;2798;42.716;23.256;2024-01-10T08:18:57;95902.50;;;2.21;66.50
5550;BME280;2798;42.716;23.256;2024-01-10T08:21:24;95899.13;;;2.21;65.83
5550;BME280;2798;42.716;23.256;2024-01-10T08:23:50;95897.22;;;2.31;66.60
5550;BME280;2798;42.716;23.256;2024-01-10T08:26:15;95892.91;;;2.36;66.45
5550;BME280;2798;42.716;23.256;2024-01-10T08:28:40;95846.88;;;2.09;65.47
5550;BME280;2798;42.716;23.256;2024-01-10T08:31:08;95896.28;;;2.37;65.38
5550;BME280;2798;42.716;23.256;2024-01-10T08:33:33;95896.09;;;2.46;67.30
5550;BME280;2798;42.716;23.256;2024-01-10T08:35:59;95896.69;;;2.57;68.22
5550;BME280;2798;42.716;23.256;2024-01-10T08:38:24;95900.75;;;2.65;70.00
5550;BME280;2798;42.716;23.256;2024-01-10T08:40:52;95893.09;;;2.66;69.42
5550;BME280;2798;42.716;23.256;2024-01-10T08:43:18;95898.00;;;2.74;69.15
5550;BME280;2798;42.716;23.256;2024-01-10T08:45:43;95904.63;;;2.81;67.44
5550;BME280;2798;42.716;23.256;2024-01-10T08:48:09;95905.50;;;2.82;67.35
5550;BME280;2798;42.716;23.256;2024-01-10T08:50:35;95908.09;;;2.79;68.24
5550;BME280;2798;42.716;23.256;2024-01-10T08:53:01;95903.69;;;2.86;68.87
5550;BME280;2798;42.716;23.256;2024-01-10T08:55:30;95906.97;;;2.91;65.80
5550;BME280;2798;42.716;23.256;2024-01-10T08:57:55;95900.19;;;2.91;66.06
5550;BME280;2798;42.716;23.256;2024-01-10T09:00:20;95907.81;;;2.91;65.78
5550;BME280;2798;42.716;23.256;2024-01-10T09:02:46;95892.41;;;2.97;66.84
5550;BME280;2798;42.716;23.256;2024-01-10T09:05:11;95893.09;;;3.04;65.59
5550;BME280;2798;42.716;23.256;2024-01-10T09:07:37;95895.66;;;3.04;65.45
5550;BME280;2798;42.716;23.256;2024-01-10T09:10:03;95893.16;;;3.03;65.66
5550;BME280;2798;42.716;23.256;2024-01-10T09:12:30;95898.84;;;3.13;65.94
5550;BME280;2798;42.716;23.256;2024-01-10T09:14:56;95901.31;;;3.16;64.41
5550;BME280;2798;42.716;23.256;2024-01-10T09:17:21;95891.97;;;3.16;63.79
5550;BME280;2798;42.716;23.256;2024-01-10T09:19:46;95897.84;;;3.18;64.66
5550;BME280;2798;42.716;23.256;2024-01-10T09:22:12;95896.03;;;3.24;65.00
5550;BME280;2798;42.716;23.256;2024-01-10T09:24:38;95893.34;;;3.30;63.95
5550;BME280;2798;42.716;23.256;2024-01-10T09:27:04;95896.78;;;3.29;63.71
5550;BME280;2798;42.716;23.256;2024-01-10T09:29:29;95890.88;;;3.27;63.18
5550;BME280;2798;42.716;23.256;2024-01-10T09:31:56;95888.97;;;3.35;63.88
5550;BME280;2798;42.716;23.256;2024-01-10T09:34:21;95888.03;;;3.39;63.56
5550;BME280;2798;42.716;23.256;2024-01-10T09:36:47;95887.19;;;3.39;63.43
5550;BME280;2798;42.716;23.256;2024-01-10T09:39:12;95885.47;;;3.39;64.14
5550;BME280;2798;42.716;23.256;2024-01-10T09:41:45;95886.97;;;3.48;62.82
5550;BME280;2798;42.716;23.256;2024-01-10T09:44:12;95883.56;;;3.48;61.79
5550;BME280;2798;42.716;23.256;2024-01-10T09:46:37;95882.69;;;3.49;62.20
5550;BME280;2798;42.716;23.256;2024-01-10T09:49:03;95884.38;;;3.50;62.37
5550;BME280;2798;42.716;23.256;2024-01-10T09:51:29;95888.47;;;3.55;62.93
5550;BME280;2798;42.716;23.256;2024-01-10T09:53:54;95875.63;;;3.60;61.64
5550;BME280;2798;42.716;23.256;2024-01-10T09:56:20;95876.50;;;3.59;62.55
5550;BME280;2798;42.716;23.256;2024-01-10T09:58:46;95868.91;;;3.57;63.01
5550;BME280;2798;42.716;23.256;2024-01-10T10:01:13;95810.25;;;3.29;63.71
5550;BME280;2798;42.716;23.256;2024-01-10T10:03:39;95866.88;;;3.70;62.49
5550;BME280;2798;42.716;23.256;2024-01-10T10:06:07;95861.03;;;3.67;62.85
5550;BME280;2798;42.716;23.256;2024-01-10T10:08:33;95858.53;;;3.65;63.37
5550;BME280;2798;42.716;23.256;2024-01-10T10:10:58;95849.75;;;3.76;61.67
5550;BME280;2798;42.716;23.256;2024-01-10T10:13:27;95859.03;;;3.78;62.27
5550;BME280;2798;42.716;23.256;2024-01-10T10:16:00;95845.53;;;3.75;62.72
5550;BME280;2798;42.716;23.256;2024-01-10T10:18:26;95843.88;;;3.74;62.98
5550;BME280;2798;42.716;23.256;2024-01-10T10:21:08;95840.28;;;3.81;62.80
5550;BME280;2798;42.716;23.256;2024-01-10T10:23:37;95836.88;;;3.82;62.52
5550;BME280;2798;42.716;23.256;2024-01-10T10:26:15;95843.56;;;3.85;63.08
5550;BME280;2798;42.716;23.256;2024-01-10T10:28:47;95840.13;;;3.86;63.85
5550;BME280;2798;42.716;23.256;2024-01-10T10:31:13;95822.09;;;3.93;62.03
5550;BME280;2798;42.716;23.256;2024-01-10T10:33:38;95822.09;;;3.93;61.66
5550;BME280;2798;42.716;23.256;2024-01-10T10:36:04;95817.00;;;3.93;61.89
5550;BME280;2798;42.716;23.256;2024-01-10T10:38:29;95815.97;;;4.01;62.70
5550;BME280;2798;42.716;23.256;2024-01-10T10:40:55;95809.88;;;4.05;61.89
5550;BME280;2798;42.716;23.256;2024-01-10T10:43:20;95808.31;;;4.01;61.51
5550;BME280;2798;42.716;23.256;2024-01-10T10:45:49;95806.63;;;4.01;61.66
5550;BME280;2798;42.716;23.256;2024-01-10T10:48:18;95802.06;;;4.11;62.47
5550;BME280;2798;42.716;23.256;2024-01-10T10:50:59;95798.69;;;4.11;61.91
5550;BME280;2798;42.716;23.256;2024-01-10T10:53:25;95801.16;;;4.14;61.20
5550;BME280;2798;42.716;23.256;2024-01-10T10:55:52;95788.56;;;4.09;61.96
5550;BME280;2798;42.716;23.256;2024-01-10T10:58:18;95796.16;;;4.11;62.40
5550;BME280;2798;42.716;23.256;2024-01-10T11:00:44;95788.47;;;4.12;61.10
5550;BME280;2798;42.716;23.256;2024-01-10T11:03:11;95791.81;;;4.13;60.33
5550;BME280;2798;42.716;23.256;2024-01-10T11:05:39;95782.56;;;4.10;61.26
5550;BME280;2798;42.716;23.256;2024-01-10T11:08:05;95778.22;;;4.14;61.46
5550;BME280;2798;42.716;23.256;2024-01-10T11:10:33;95779.06;;;4.14;61.36
5550;BME280;2798;42.716;23.256;2024-01-10T11:13:13;95773.13;;;4.14;61.34
5550;BME280;2798;42.716;23.256;2024-01-10T11:23:58;95759.47;;;4.16;59.96
5550;BME280;2798;42.716;23.256;2024-01-10T11:26:24;95766.19;;;4.19;60.60
5550;BME280;2798;42.716;23.256;2024-01-10T11:28:50;95762.72;;;4.22;59.09
5550;BME280;2798;42.716;23.256;2024-01-10T11:31:16;95762.50;;;4.28;58.38
5550;BME280;2798;42.716;23.256;2024-01-10T11:33:51;95758.50;;;4.20;59.10
5550;BME280;2798;42.716;23.256;2024-01-10T11:36:18;95749.06;;;4.23;59.51
5550;BME280;2798;42.716;23.256;2024-01-10T11:46:39;95743.47;;;4.40;59.16
5550;BME280;2798;42.716;23.256;2024-01-10T11:49:12;95733.56;;;4.30;59.03
5550;BME280;2798;42.716;23.256;2024-01-10T11:51:41;95726.03;;;4.26;60.30
5550;BME280;2798;42.716;23.256;2024-01-10T11:54:07;95725.94;;;4.30;61.41
5550;BME280;2798;42.716;23.256;2024-01-10T11:56:39;95731.63;;;4.37;61.76
5550;BME280;2798;42.716;23.256;2024-01-10T11:59:09;95728.03;;;4.44;62.01
5550;BME280;2798;42.716;23.256;2024-01-10T12:01:36;95724.28;;;4.55;62.90
5550;BME280;2798;42.716;23.256;2024-01-10T12:04:02;95719.78;;;4.63;62.52
5550;BME280;2798;42.716;23.256;2024-01-10T12:06:28;95717.06;;;4.68;61.98
5550;BME280;2798;42.716;23.256;2024-01-10T12:08:54;95713.50;;;4.74;61.47
5550;BME280;2798;42.716;23.256;2024-01-10T12:11:19;95722.66;;;4.79;61.65
5550;BME280;2798;42.716;23.256;2024-01-10T12:13:45;95708.94;;;4.84;61.48
5550;BME280;2798;42.716;23.256;2024-01-10T12:16:11;95704.59;;;4.86;61.77
5550;BME280;2798;42.716;23.256;2024-01-10T12:18:37;95701.78;;;4.93;61.53
5550;BME280;2798;42.716;23.256;2024-01-10T12:21:03;95699.03;;;5.00;61.43
5550;BME280;2798;42.716;23.256;2024-01-10T12:23:29;95694.63;;;5.03;60.77
5550;BME280;2798;42.716;23.256;2024-01-10T12:25:57;95692.81;;;5.07;60.96
5550;BME280;2798;42.716;23.256;2024-01-10T12:28:22;95691.88;;;5.10;60.54
5550;BME280;2798;42.716;23.256;2024-01-10T12:30:48;95698.50;;;5.15;61.14
5550;BME280;2798;42.716;23.256;2024-01-10T12:33:13;95701.84;;;5.17;60.83
5550;BME280;2798;42.716;23.256;2024-01-10T12:35:38;95703.38;;;5.22;60.31
5550;BME280;2798;42.716;23.256;2024-01-10T12:38:07;95701.50;;;5.27;59.90
5550;BME280;2798;42.716;23.256;2024-01-10T12:40:33;95697.25;;;5.26;59.30
5550;BME280;2798;42.716;23.256;2024-01-10T12:43:02;95704.13;;;5.25;59.19
5550;BME280;2798;42.716;23.256;2024-01-10T12:45:27;95699.06;;;5.24;59.26
5550;BME280;2798;42.716;23.256;2024-01-10T12:47:53;95699.13;;;5.22;58.88
5550;BME280;2798;42.716;23.256;2024-01-10T12:50:18;95700.81;;;5.22;58.91
5550;BME280;2798;42.716;23.256;2024-01-10T12:52:44;95699.16;;;5.21;58.45
5550;BME280;2798;42.716;23.256;2024-01-10T12:55:09;95701.78;;;5.19;58.76
5550;BME280;2798;42.716;23.256;2024-01-10T12:57:35;95700.94;;;5.18;58.53
5550;BME280;2798;42.716;23.256;2024-01-10T13:00:00;95701.00;;;5.17;58.96
5550;BME280;2798;42.716;23.256;2024-01-10T13:02:25;95710.34;;;5.16;58.18
5550;BME280;2798;42.716;23.256;2024-01-10T13:04:51;95703.66;;;5.14;57.74
5550;BME280;2798;42.716;23.256;2024-01-10T13:07:17;95702.81;;;5.13;58.54
5550;BME280;2798;42.716;23.256;2024-01-10T13:09:42;95710.47;;;5.13;58.64
5550;BME280;2798;42.716;23.256;2024-01-10T13:12:07;95711.38;;;5.12;58.46
5550;BME280;2798;42.716;23.256;2024-01-10T13:14:33;95707.13;;;5.11;58.46
5550;BME280;2798;42.716;23.256;2024-01-10T13:16:59;95707.19;;;5.10;58.36
5550;BME280;2798;42.716;23.256;2024-01-10T13:19:24;95638.81;;;4.70;56.88
5550;BME280;2798;42.716;23.256;2024-01-10T13:21:49;95701.47;;;5.03;57.02
5550;BME280;2798;42.716;23.256;2024-01-10T13:24:15;95696.78;;;4.90;57.71
5550;BME280;2798;42.716;23.256;2024-01-10T13:26:40;95694.00;;;4.97;57.12
5550;BME280;2798;42.716;23.256;2024-01-10T13:29:05;95691.84;;;4.86;58.43
5550;BME280;2798;42.716;23.256;2024-01-10T13:31:31;95692.09;;;4.78;57.14